createdAt,value
2017-02-08T00:00:14.324Z,9.14
2017-02-08T00:00:54.813Z,9.23
2017-02-08T00:01:35.308Z,9.14
2017-02-08T00:02:15.812Z,8.75
2017-02-08T00:02:56.307Z,9.14
2017-02-08T00:03:36.789Z,9.33
2017-02-08T00:04:17.282Z,9.23
2017-02-08T00:04:57.790Z,9.23
2017-02-08T00:05:38.280Z,9.23
2017-02-08T00:06:18.776Z,9.33
2017-02-08T00:06:59.275Z,9.23
2017-02-08T00:07:39.787Z,9.23
2017-02-08T00:08:20.277Z,9.14
2017-02-08T00:09:00.776Z,9.23
2017-02-08T00:09:41.285Z,9.14
2017-02-08T00:10:21.782Z,9.14
2017-02-08T00:11:02.274Z,9.33
2017-02-08T00:11:42.768Z,9.04
2017-02-08T00:12:23.268Z,9.14
2017-02-08T00:13:03.755Z,8.85
2017-02-08T00:13:44.241Z,9.23
2017-02-08T00:14:24.743Z,9.23
2017-02-08T00:15:05.246Z,9.23
2017-02-08T00:15:45.737Z,8.95
2017-02-08T00:16:26.228Z,8.95
2017-02-08T00:17:06.718Z,9.33
2017-02-08T00:17:47.213Z,9.14
2017-02-08T00:18:27.688Z,9.04
2017-02-08T00:19:08.190Z,8.75
2017-02-08T00:19:48.690Z,9.33
2017-02-08T00:20:29.176Z,8.75
2017-02-08T00:21:09.674Z,8.85
2017-02-08T00:21:50.162Z,9.33
2017-02-08T00:22:30.660Z,9.14
2017-02-08T00:23:11.154Z,8.85
2017-02-08T00:23:51.656Z,8.95
2017-02-08T00:24:32.281Z,8.75
2017-02-08T00:25:12.783Z,8.95
2017-02-08T00:25:53.284Z,8.75
2017-02-08T00:26:33.787Z,8.85
2017-02-08T00:27:14.279Z,8.85
2017-02-08T00:27:54.770Z,8.95
2017-02-08T00:28:35.258Z,8.75
2017-02-08T00:29:15.752Z,8.65
2017-02-08T00:29:56.257Z,8.75
2017-02-08T00:30:36.755Z,8.85
2017-02-08T00:31:17.251Z,8.75
2017-02-08T00:31:57.762Z,8.85
2017-02-08T00:32:38.256Z,8.65
2017-02-08T00:33:18.749Z,8.65
2017-02-08T00:33:59.230Z,8.65
2017-02-08T00:34:39.727Z,8.75
2017-02-08T00:35:20.225Z,8.75
2017-02-08T00:36:00.708Z,8.85
2017-02-08T00:36:41.216Z,8.85
2017-02-08T00:37:21.699Z,8.75
2017-02-08T00:38:02.210Z,8.75
2017-02-08T00:38:42.698Z,8.85
2017-02-08T00:39:23.214Z,8.85
2017-02-08T00:40:03.700Z,8.75
2017-02-08T00:40:44.194Z,8.65
2017-02-08T00:41:24.691Z,8.85
2017-02-08T00:42:05.202Z,8.75
2017-02-08T00:42:45.694Z,8.75
2017-02-08T00:43:26.187Z,8.75
2017-02-08T00:44:06.683Z,8.85
2017-02-08T00:44:47.172Z,8.75
2017-02-08T00:45:27.657Z,8.95
2017-02-08T00:46:08.150Z,8.75
2017-02-08T00:46:48.646Z,9.04
2017-02-08T00:47:29.152Z,8.85
2017-02-08T00:48:09.650Z,8.85
2017-02-08T00:48:50.141Z,8.95
2017-02-08T00:49:30.628Z,8.65
2017-02-08T00:50:11.112Z,8.85
2017-02-08T00:50:51.609Z,8.85
2017-02-08T00:51:32.106Z,8.65
2017-02-08T00:52:12.586Z,8.85
2017-02-08T00:52:53.074Z,8.95
2017-02-08T00:53:33.576Z,8.95
2017-02-08T00:54:14.057Z,9.04
2017-02-08T00:54:54.743Z,8.95
2017-02-08T00:55:35.260Z,8.95
2017-02-08T00:56:15.752Z,8.85
2017-02-08T00:56:56.244Z,8.85
2017-02-08T00:57:36.742Z,8.75
2017-02-08T00:58:17.230Z,8.75
2017-02-08T00:58:57.741Z,8.85
2017-02-08T00:59:38.226Z,8.75
2017-02-08T01:00:18.738Z,8.95
2017-02-08T01:00:59.226Z,8.85
2017-02-08T01:01:39.725Z,8.85
2017-02-08T01:02:20.227Z,8.95
2017-02-08T01:03:00.724Z,9.04
2017-02-08T01:03:41.222Z,8.95
2017-02-08T01:04:21.733Z,8.85
2017-02-08T01:05:02.225Z,8.95
2017-02-08T01:05:42.716Z,8.95
2017-02-08T01:06:23.200Z,8.95
2017-02-08T01:07:03.689Z,8.95
2017-02-08T01:07:44.191Z,8.95
2017-02-08T01:08:24.680Z,8.95
2017-02-08T01:09:05.178Z,8.85
2017-02-08T01:09:45.673Z,8.85
2017-02-08T01:10:26.164Z,8.95
2017-02-08T01:11:06.642Z,9.04
2017-02-08T01:11:47.120Z,8.95
2017-02-08T01:12:27.624Z,8.95
2017-02-08T01:13:08.111Z,8.75
2017-02-08T01:13:48.623Z,8.95
2017-02-08T01:14:29.117Z,8.95
2017-02-08T01:15:09.606Z,9.04
2017-02-08T01:15:50.101Z,9.04
2017-02-08T01:16:30.575Z,9.04
2017-02-08T01:17:11.068Z,8.85
2017-02-08T01:17:51.561Z,8.85
2017-02-08T01:18:32.057Z,8.85
2017-02-08T01:19:12.554Z,8.85
2017-02-08T01:19:53.071Z,8.95
2017-02-08T01:20:33.556Z,8.95
2017-02-08T01:21:14.050Z,8.95
2017-02-08T01:21:54.553Z,8.85
2017-02-08T01:22:35.063Z,8.85
2017-02-08T01:23:15.553Z,8.95
2017-02-08T01:23:56.064Z,8.95
2017-02-08T01:24:36.551Z,8.95
2017-02-08T01:25:17.038Z,8.95
2017-02-08T01:25:57.562Z,8.95
2017-02-08T01:26:38.030Z,8.85
2017-02-08T01:27:18.518Z,8.85
2017-02-08T01:27:59.007Z,8.95
2017-02-08T01:28:39.507Z,9.04
2017-02-08T01:29:19.998Z,9.14
2017-02-08T01:30:00.493Z,8.95
2017-02-08T01:30:40.984Z,9.04
2017-02-08T01:31:21.473Z,9.14
2017-02-08T01:32:01.969Z,8.95
2017-02-08T01:32:42.448Z,8.95
2017-02-08T01:33:22.952Z,8.95
2017-02-08T01:34:03.441Z,9.14
2017-02-08T01:34:43.933Z,8.85
2017-02-08T01:35:24.421Z,8.85
2017-02-08T01:36:04.918Z,8.85
2017-02-08T01:36:45.408Z,8.95
2017-02-08T01:37:25.891Z,9.04
2017-02-08T01:38:06.383Z,8.95
2017-02-08T01:38:46.878Z,9.14
2017-02-08T01:39:27.405Z,9.04
2017-02-08T01:40:07.891Z,9.04
2017-02-08T01:40:48.390Z,8.85
2017-02-08T01:41:28.884Z,8.85
2017-02-08T01:42:09.375Z,9.14
2017-02-08T01:42:49.857Z,8.95
2017-02-08T01:43:30.340Z,9.04
2017-02-08T01:44:10.839Z,8.95
2017-02-08T01:44:51.326Z,9.14
2017-02-08T01:45:31.823Z,9.04
2017-02-08T01:46:12.317Z,9.04
2017-02-08T01:46:52.835Z,9.04
2017-02-08T01:47:33.294Z,8.95
2017-02-08T01:48:13.775Z,9.04
2017-02-08T01:48:54.282Z,9.04
2017-02-08T01:49:34.770Z,9.04
2017-02-08T01:50:15.271Z,9.04
2017-02-08T01:50:55.768Z,9.04
2017-02-08T01:51:36.268Z,9.04
2017-02-08T01:52:16.767Z,9.04
2017-02-08T01:52:57.277Z,8.85
2017-02-08T01:53:37.770Z,8.75
2017-02-08T01:54:18.278Z,8.85
2017-02-08T01:54:58.767Z,8.75
2017-02-08T01:55:39.265Z,8.85
2017-02-08T01:56:19.765Z,9.04
2017-02-08T01:57:00.263Z,8.95
2017-02-08T01:57:40.762Z,8.85
2017-02-08T01:58:21.258Z,8.75
2017-02-08T01:59:01.763Z,9.04
2017-02-08T01:59:42.244Z,9.04
2017-02-08T02:00:22.730Z,8.85
2017-02-08T02:01:03.209Z,8.85
2017-02-08T02:01:43.718Z,8.85
2017-02-08T02:02:24.208Z,8.95
2017-02-08T02:03:04.706Z,8.95
2017-02-08T02:03:45.208Z,8.85
2017-02-08T02:04:25.700Z,8.85
2017-02-08T02:05:06.182Z,8.95
2017-02-08T02:05:46.667Z,8.95
2017-02-08T02:06:27.725Z,8.85
2017-02-08T02:07:08.225Z,8.85
2017-02-08T02:07:48.714Z,8.95
2017-02-08T02:08:29.209Z,9.04
2017-02-08T02:09:09.713Z,8.85
2017-02-08T02:09:50.226Z,8.95
2017-02-08T02:10:30.716Z,9.04
2017-02-08T02:11:11.220Z,8.95
2017-02-08T02:11:51.710Z,8.85
2017-02-08T02:12:32.205Z,9.04
2017-02-08T02:13:12.705Z,9.04
2017-02-08T02:13:53.204Z,9.04
2017-02-08T02:14:33.688Z,8.85
2017-02-08T02:15:14.182Z,8.85
2017-02-08T02:15:54.681Z,8.95
2017-02-08T02:16:35.169Z,8.75
2017-02-08T02:17:15.662Z,8.85
2017-02-08T02:17:56.156Z,8.85
2017-02-08T02:18:36.652Z,8.85
2017-02-08T02:19:17.148Z,8.95
2017-02-08T02:19:57.632Z,8.95
2017-02-08T02:20:38.147Z,8.56
2017-02-08T02:21:18.616Z,8.75
2017-02-08T02:21:59.094Z,8.85
2017-02-08T02:22:39.585Z,8.95
2017-02-08T02:23:20.071Z,8.95
2017-02-08T02:24:00.560Z,8.95
2017-02-08T02:24:41.046Z,8.95
2017-02-08T02:25:21.541Z,8.95
2017-02-08T02:26:02.039Z,8.85
2017-02-08T02:26:42.551Z,8.85
2017-02-08T02:27:23.040Z,8.95
2017-02-08T02:28:03.554Z,8.85
2017-02-08T02:28:44.044Z,8.85
2017-02-08T02:29:24.551Z,8.85
2017-02-08T02:30:05.038Z,9.04
2017-02-08T02:30:45.532Z,8.85
2017-02-08T02:31:26.176Z,8.95
2017-02-08T02:32:06.665Z,8.85
2017-02-08T02:32:47.175Z,8.95
2017-02-08T02:33:27.634Z,8.95
2017-02-08T02:34:08.133Z,8.85
2017-02-08T02:34:48.646Z,8.85
2017-02-08T02:35:29.135Z,8.85
2017-02-08T02:36:09.644Z,8.95
2017-02-08T02:36:50.140Z,8.95
2017-02-08T02:37:30.650Z,8.65
2017-02-08T02:38:11.136Z,8.85
2017-02-08T02:38:51.631Z,8.65
2017-02-08T02:39:32.129Z,8.95
2017-02-08T02:40:12.642Z,8.95
2017-02-08T02:40:53.133Z,8.95
2017-02-08T02:41:33.632Z,8.95
2017-02-08T02:42:14.131Z,8.85
2017-02-08T02:42:54.629Z,8.75
2017-02-08T02:43:35.107Z,8.65
2017-02-08T02:44:15.607Z,8.95
2017-02-08T02:44:56.091Z,8.56
2017-02-08T02:45:36.579Z,8.75
2017-02-08T02:46:17.073Z,8.65
2017-02-08T02:46:57.580Z,8.75
2017-02-08T02:47:38.080Z,8.75
2017-02-08T02:48:18.578Z,8.75
2017-02-08T02:48:59.073Z,8.56
2017-02-08T02:49:39.601Z,8.75
2017-02-08T02:51:52.430Z,8.75
2017-02-08T02:52:32.912Z,8.56
2017-02-08T02:53:13.413Z,8.85
2017-02-08T02:53:53.907Z,8.75
2017-02-08T02:54:34.392Z,8.95
2017-02-08T02:55:14.892Z,8.75
2017-02-08T02:55:55.385Z,8.75
2017-02-08T02:56:35.877Z,8.75
2017-02-08T02:57:16.380Z,8.56
2017-02-08T02:57:56.875Z,8.85
2017-02-08T02:58:37.358Z,8.75
2017-02-08T02:59:17.833Z,8.56
2017-02-08T02:59:58.337Z,8.65
2017-02-08T03:00:38.824Z,8.75
2017-02-08T03:01:19.346Z,8.75
2017-02-08T03:01:59.844Z,8.75
2017-02-08T03:02:40.349Z,8.75
2017-02-08T03:03:20.829Z,8.85
2017-02-08T03:04:01.318Z,8.95
2017-02-08T03:04:41.811Z,8.56
2017-02-08T03:05:22.302Z,8.75
2017-02-08T03:06:02.789Z,8.85
2017-02-08T03:06:43.271Z,8.75
2017-02-08T03:07:23.778Z,8.85
2017-02-08T03:08:04.268Z,8.85
2017-02-08T03:08:44.783Z,8.75
2017-02-08T03:09:25.266Z,8.65
2017-02-08T03:10:05.774Z,8.65
2017-02-08T03:10:46.265Z,8.95
2017-02-08T03:11:26.779Z,8.85
2017-02-08T03:12:07.264Z,8.75
2017-02-08T03:12:47.760Z,8.75
2017-02-08T03:13:28.239Z,8.75
2017-02-08T03:14:08.740Z,8.75
2017-02-08T03:14:49.233Z,8.56
2017-02-08T03:15:29.714Z,8.56
2017-02-08T03:16:10.327Z,8.85
2017-02-08T03:16:50.811Z,8.85
2017-02-08T03:17:31.321Z,8.56
2017-02-08T03:18:11.811Z,8.75
2017-02-08T03:18:52.307Z,8.65
2017-02-08T03:19:32.798Z,8.75
2017-02-08T03:20:13.287Z,8.85
2017-02-08T03:20:53.782Z,8.56
2017-02-08T03:21:34.280Z,8.65
2017-02-08T03:22:14.776Z,8.75
2017-02-08T03:22:55.269Z,8.95
2017-02-08T03:23:35.751Z,8.56
2017-02-08T03:24:16.251Z,8.75
2017-02-08T03:24:56.767Z,8.75
2017-02-08T03:25:37.253Z,8.56
2017-02-08T03:26:17.764Z,8.75
2017-02-08T03:26:58.253Z,8.75
2017-02-08T03:27:38.762Z,8.75
2017-02-08T03:28:19.257Z,8.65
2017-02-08T03:28:59.746Z,8.75
2017-02-08T03:29:40.240Z,8.75
2017-02-08T03:30:20.725Z,8.75
2017-02-08T03:31:01.225Z,8.75
2017-02-08T03:31:41.717Z,8.75
2017-02-08T03:32:22.222Z,8.75
2017-02-08T03:33:02.714Z,8.85
2017-02-08T03:33:43.205Z,8.75
2017-02-08T03:34:23.691Z,8.85
2017-02-08T03:35:04.202Z,8.95
2017-02-08T03:35:44.687Z,8.75
2017-02-08T03:36:25.171Z,8.56
2017-02-08T03:37:05.662Z,8.75
2017-02-08T03:37:46.149Z,8.56
2017-02-08T03:38:26.650Z,8.85
2017-02-08T03:39:07.134Z,8.56
2017-02-08T03:39:47.652Z,8.75
2017-02-08T03:40:28.133Z,8.75
2017-02-08T03:41:08.645Z,8.85
2017-02-08T03:41:49.134Z,8.65
2017-02-08T03:42:29.833Z,8.95
2017-02-08T03:43:10.315Z,8.75
2017-02-08T03:43:50.795Z,8.75
2017-02-08T03:44:31.297Z,8.75
2017-02-08T03:45:11.787Z,8.65
2017-02-08T03:45:52.279Z,8.65
2017-02-08T03:46:32.776Z,8.75
2017-02-08T03:47:13.238Z,8.65
2017-02-08T03:47:53.742Z,8.85
2017-02-08T03:48:34.227Z,8.75
2017-02-08T03:49:14.726Z,8.85
2017-02-08T03:49:55.224Z,8.75
2017-02-08T03:50:35.697Z,8.65
2017-02-08T03:51:16.191Z,8.75
2017-02-08T03:51:56.680Z,8.75
2017-02-08T03:52:37.176Z,8.65
2017-02-08T03:53:17.670Z,8.75
2017-02-08T03:53:58.154Z,8.65
2017-02-08T03:54:39.451Z,8.75
2017-02-08T03:55:19.946Z,8.85
2017-02-08T03:56:00.433Z,8.95
2017-02-08T03:56:40.932Z,8.65
2017-02-08T03:57:21.421Z,8.65
2017-02-08T03:58:01.903Z,8.75
2017-02-08T03:58:42.390Z,8.65
2017-02-08T03:59:22.883Z,8.65
2017-02-08T04:00:03.369Z,8.75
2017-02-08T04:00:43.865Z,8.65
2017-02-08T04:01:24.352Z,8.75
2017-02-08T04:02:04.841Z,8.75
2017-02-08T04:02:45.341Z,8.65
2017-02-08T04:03:25.832Z,8.75
2017-02-08T04:04:06.329Z,8.75
2017-02-08T04:04:46.825Z,8.65
2017-02-08T04:05:27.315Z,8.65
2017-02-08T04:06:07.806Z,8.85
2017-02-08T04:06:48.295Z,8.65
2017-02-08T04:07:28.786Z,8.65
2017-02-08T04:08:09.272Z,8.85
2017-02-08T04:08:49.775Z,8.65
2017-02-08T04:09:30.279Z,8.85
2017-02-08T04:10:10.782Z,8.85
2017-02-08T04:10:51.277Z,8.65
2017-02-08T04:11:31.783Z,8.85
2017-02-08T04:12:12.274Z,8.65
2017-02-08T04:12:52.774Z,8.75
2017-02-08T04:13:33.271Z,8.85
2017-02-08T04:14:13.781Z,8.85
2017-02-08T04:14:54.268Z,8.65
2017-02-08T04:15:34.765Z,8.85
2017-02-08T04:16:15.255Z,8.85
2017-02-08T04:16:55.737Z,8.75
2017-02-08T04:17:36.226Z,8.85
2017-02-08T04:18:16.748Z,8.65
2017-02-08T04:18:57.236Z,8.65
2017-02-08T04:19:37.717Z,8.85
2017-02-08T04:20:18.206Z,8.75
2017-02-08T04:20:58.710Z,8.75
2017-02-08T04:21:39.195Z,8.75
2017-02-08T04:22:19.678Z,8.75
2017-02-08T04:23:00.161Z,8.65
2017-02-08T04:23:40.657Z,8.65
2017-02-08T04:24:21.156Z,8.65
2017-02-08T04:25:01.656Z,8.65
2017-02-08T04:25:42.152Z,8.75
2017-02-08T04:26:22.635Z,8.65
2017-02-08T04:27:03.129Z,8.65
2017-02-08T04:27:43.623Z,8.65
2017-02-08T04:28:24.117Z,8.75
2017-02-08T04:29:04.606Z,8.65
2017-02-08T04:29:45.112Z,8.75
2017-02-08T04:30:25.603Z,8.75
2017-02-08T04:31:06.094Z,8.75
2017-02-08T04:31:46.578Z,8.75
2017-02-08T04:32:27.100Z,8.65
2017-02-08T04:33:07.559Z,8.75
2017-02-08T04:33:48.050Z,8.85
2017-02-08T04:34:28.560Z,8.65
2017-02-08T04:35:09.046Z,8.85
2017-02-08T04:35:49.541Z,8.85
2017-02-08T04:36:30.025Z,8.85
2017-02-08T04:37:10.513Z,8.85
2017-02-08T04:37:51.002Z,8.85
2017-02-08T04:38:31.496Z,8.85
2017-02-08T04:39:12.004Z,8.85
2017-02-08T04:39:52.491Z,8.75
2017-02-08T04:40:32.983Z,8.75
2017-02-08T04:41:13.491Z,8.75
2017-02-08T04:41:54.008Z,8.75
2017-02-08T04:42:34.492Z,8.85
2017-02-08T04:43:14.997Z,8.75
2017-02-08T04:43:55.489Z,8.65
2017-02-08T04:44:35.984Z,8.75
2017-02-08T04:45:16.479Z,8.65
2017-02-08T04:45:56.963Z,8.75
2017-02-08T04:46:37.987Z,8.65
2017-02-08T04:47:17.935Z,8.65
2017-02-08T04:47:58.428Z,8.85
2017-02-08T04:48:38.909Z,8.75
2017-02-08T04:49:19.405Z,8.75
2017-02-08T04:49:59.909Z,8.75
2017-02-08T04:50:40.393Z,8.65
2017-02-08T04:51:20.889Z,8.65
2017-02-08T04:52:01.375Z,8.65
2017-02-08T04:52:41.872Z,8.75
2017-02-08T04:53:22.403Z,8.85
2017-02-08T04:54:02.899Z,8.85
2017-02-08T04:54:43.393Z,8.65
2017-02-08T04:55:23.885Z,8.85
2017-02-08T04:56:04.371Z,8.85
2017-02-08T04:56:44.882Z,8.85
2017-02-08T04:57:25.372Z,8.85
2017-02-08T04:58:05.868Z,8.65
2017-02-08T04:58:46.366Z,8.95
2017-02-08T04:59:26.849Z,8.65
2017-02-08T05:00:07.338Z,8.85
2017-02-08T05:00:47.819Z,8.95
2017-02-08T05:01:28.314Z,8.85
2017-02-08T05:02:08.814Z,8.85
2017-02-08T05:02:49.303Z,8.65
2017-02-08T05:03:29.790Z,8.75
2017-02-08T05:04:10.282Z,8.65
2017-02-08T05:04:50.779Z,8.75
2017-02-08T05:05:31.263Z,8.65
2017-02-08T05:06:11.758Z,8.75
2017-02-08T05:06:52.263Z,8.75
2017-02-08T05:07:32.753Z,8.65
2017-02-08T05:08:13.244Z,8.85
2017-02-08T05:08:53.728Z,8.75
2017-02-08T05:09:34.217Z,8.85
2017-02-08T05:10:14.709Z,8.85
2017-02-08T05:10:55.202Z,8.75
2017-02-08T05:11:35.696Z,8.75
2017-02-08T05:12:16.188Z,8.75
2017-02-08T05:12:56.677Z,8.65
2017-02-08T05:13:37.202Z,8.75
2017-02-08T05:14:17.694Z,8.75
2017-02-08T05:14:58.201Z,8.65
2017-02-08T05:15:38.669Z,8.75
2017-02-08T05:16:19.152Z,8.75
2017-02-08T05:16:59.638Z,8.95
2017-02-08T05:17:40.131Z,8.85
2017-02-08T05:18:20.609Z,8.85
2017-02-08T05:19:01.109Z,8.85
2017-02-08T05:19:41.596Z,8.65
2017-02-08T05:20:22.113Z,8.65
2017-02-08T05:21:02.596Z,8.85
2017-02-08T05:21:43.094Z,8.85
2017-02-08T05:22:23.595Z,8.95
2017-02-08T05:23:04.087Z,8.85
2017-02-08T05:23:44.577Z,8.85
2017-02-08T05:24:25.069Z,8.85
2017-02-08T05:25:05.568Z,8.85
2017-02-08T05:25:46.058Z,8.85
2017-02-08T05:26:26.550Z,8.65
2017-02-08T05:27:07.040Z,8.85
2017-02-08T05:27:47.536Z,8.95
2017-02-08T05:28:28.033Z,8.65
2017-02-08T05:29:08.503Z,8.85
2017-02-08T05:29:48.996Z,8.75
2017-02-08T05:30:29.488Z,8.85
2017-02-08T05:31:09.980Z,8.75
2017-02-08T05:31:50.492Z,8.75
2017-02-08T05:32:30.991Z,8.75
2017-02-08T05:33:11.482Z,8.85
2017-02-08T05:33:51.993Z,8.65
2017-02-08T05:34:32.480Z,8.75
2017-02-08T05:35:12.975Z,8.65
2017-02-08T05:35:53.456Z,8.75
2017-02-08T05:36:33.955Z,8.75
2017-02-08T05:37:14.466Z,8.65
2017-02-08T05:37:54.949Z,8.65
2017-02-08T05:38:35.451Z,8.75
2017-02-08T05:39:15.953Z,8.75
2017-02-08T05:39:56.438Z,8.65
2017-02-08T05:40:36.925Z,8.75
2017-02-08T05:41:17.433Z,8.65
2017-02-08T05:41:57.922Z,8.65
2017-02-08T05:42:38.419Z,8.75
2017-02-08T05:43:18.912Z,8.75
2017-02-08T05:43:59.405Z,8.75
2017-02-08T05:44:39.898Z,8.75
2017-02-08T05:45:20.386Z,8.75
2017-02-08T05:46:00.880Z,8.75
2017-02-08T05:46:41.368Z,8.75
2017-02-08T05:47:21.862Z,8.75
2017-02-08T05:48:02.355Z,8.75
2017-02-08T05:48:42.844Z,8.75
2017-02-08T05:49:23.341Z,8.75
2017-02-08T05:50:03.828Z,8.75
2017-02-08T05:50:44.325Z,8.65
2017-02-08T05:51:24.807Z,8.75
2017-02-08T05:52:05.308Z,8.75
2017-02-08T05:52:45.826Z,8.75
2017-02-08T05:53:26.319Z,8.75
2017-02-08T05:54:06.808Z,8.65
2017-02-08T05:54:47.391Z,8.95
2017-02-08T05:55:27.874Z,8.75
2017-02-08T05:56:08.387Z,8.75
2017-02-08T05:56:48.855Z,8.85
2017-02-08T05:57:29.356Z,8.75
2017-02-08T05:58:09.872Z,8.75
2017-02-08T05:58:50.356Z,8.75
2017-02-08T05:59:30.853Z,8.85
2017-02-08T06:00:11.354Z,8.75
2017-02-08T06:00:51.863Z,8.75
2017-02-08T06:01:32.353Z,8.75
2017-02-08T06:02:12.846Z,8.65
2017-02-08T06:02:53.330Z,8.75
2017-02-08T06:03:33.819Z,8.75
2017-02-08T06:04:14.310Z,8.75
2017-02-08T06:04:54.802Z,8.75
2017-02-08T06:05:35.315Z,8.75
2017-02-08T06:06:15.801Z,8.56
2017-02-08T06:06:56.307Z,8.85
2017-02-08T06:07:36.798Z,8.75
2017-02-08T06:08:17.305Z,8.65
2017-02-08T06:08:57.798Z,8.75
2017-02-08T06:09:38.291Z,8.75
2017-02-08T06:10:18.783Z,8.85
2017-02-08T06:10:59.271Z,8.95
2017-02-08T06:11:39.769Z,8.75
2017-02-08T06:12:20.250Z,8.85
2017-02-08T06:13:00.787Z,8.65
2017-02-08T06:13:41.242Z,8.65
2017-02-08T06:14:21.739Z,8.75
2017-02-08T06:15:02.242Z,8.75
2017-02-08T06:15:42.722Z,8.56
2017-02-08T06:16:23.218Z,8.75
2017-02-08T06:17:03.715Z,8.65
2017-02-08T06:17:44.213Z,8.56
2017-02-08T06:18:24.696Z,8.95
2017-02-08T06:19:05.193Z,8.95
2017-02-08T06:19:45.685Z,8.75
2017-02-08T06:20:26.177Z,8.85
2017-02-08T06:21:06.662Z,8.85
2017-02-08T06:21:47.157Z,8.95
2017-02-08T06:22:27.657Z,8.85
2017-02-08T06:23:08.134Z,8.85
2017-02-08T06:23:48.646Z,8.85
2017-02-08T06:24:29.131Z,8.65
2017-02-08T06:25:09.828Z,8.75
2017-02-08T06:25:50.332Z,8.75
2017-02-08T06:26:30.859Z,8.75
2017-02-08T06:27:11.337Z,8.85
2017-02-08T06:27:51.828Z,8.75
2017-02-08T06:28:32.329Z,8.65
2017-02-08T06:29:12.839Z,8.65
2017-02-08T06:29:53.328Z,8.75
2017-02-08T06:30:33.849Z,8.75
2017-02-08T06:31:14.337Z,8.65
2017-02-08T06:31:54.836Z,8.85
2017-02-08T06:32:35.328Z,8.95
2017-02-08T06:33:15.824Z,8.95
2017-02-08T06:33:56.330Z,8.85
2017-02-08T06:34:36.848Z,8.85
2017-02-08T06:35:17.323Z,8.56
2017-02-08T06:35:57.828Z,8.75
2017-02-08T06:36:38.318Z,8.56
2017-02-08T06:37:18.831Z,8.65
2017-02-08T06:37:59.322Z,8.56
2017-02-08T06:38:39.811Z,8.75
2017-02-08T06:39:20.311Z,8.75
2017-02-08T06:40:00.788Z,8.75
2017-02-08T06:40:41.296Z,8.75
2017-02-08T06:41:21.790Z,8.75
2017-02-08T06:42:02.293Z,8.75
2017-02-08T06:42:42.783Z,8.85
2017-02-08T06:43:23.276Z,8.56
2017-02-08T06:44:03.765Z,8.56
2017-02-08T06:44:44.259Z,8.75
2017-02-08T06:45:24.741Z,8.85
2017-02-08T06:46:05.233Z,8.84
2017-02-08T06:46:45.734Z,8.85
2017-02-08T06:47:26.219Z,8.95
2017-02-08T06:48:06.720Z,8.85
2017-02-08T06:48:47.209Z,8.95
2017-02-08T06:49:27.722Z,8.95
2017-02-08T06:50:08.199Z,9.04
2017-02-08T06:50:48.687Z,8.95
2017-02-08T06:51:29.185Z,8.95
2017-02-08T06:52:09.889Z,8.95
2017-02-08T06:52:50.375Z,9.04
2017-02-08T06:53:30.860Z,8.95
2017-02-08T06:54:11.400Z,8.85
2017-02-08T06:54:51.885Z,8.85
2017-02-08T06:55:32.403Z,8.95
2017-02-08T06:56:12.889Z,8.95
2017-02-08T06:56:53.372Z,8.56
2017-02-08T06:57:33.885Z,8.75
2017-02-08T06:58:14.374Z,8.95
2017-02-08T06:58:54.857Z,8.85
2017-02-08T06:59:35.360Z,8.85
2017-02-08T07:00:15.849Z,9.23
2017-02-08T07:00:56.367Z,9.23
2017-02-08T07:01:36.853Z,9.23
2017-02-08T07:02:17.342Z,9.23
2017-02-08T07:02:58.709Z,9.14
2017-02-08T07:03:39.196Z,9.43
2017-02-08T07:04:19.693Z,9.33
2017-02-08T07:05:00.201Z,9.23
2017-02-08T07:05:40.700Z,9.33
2017-02-08T07:06:21.187Z,9.33
2017-02-08T07:07:01.673Z,9.33
2017-02-08T07:07:42.174Z,9.23
2017-02-08T07:08:22.665Z,9.23
2017-02-08T07:09:03.164Z,9.33
2017-02-08T07:09:43.672Z,9.43
2017-02-08T07:10:24.171Z,9.52
2017-02-08T07:11:04.659Z,9.52
2017-02-08T07:11:45.149Z,9.62
2017-02-08T07:12:25.637Z,9.43
2017-02-08T07:13:06.117Z,9.43
2017-02-08T07:13:46.628Z,9.62
2017-02-08T07:14:27.117Z,9.43
2017-02-08T07:15:07.617Z,9.33
2017-02-08T07:15:48.108Z,9.52
2017-02-08T07:16:28.615Z,9.43
2017-02-08T07:17:09.104Z,9.43
2017-02-08T07:17:49.602Z,9.52
2017-02-08T07:18:30.101Z,9.33
2017-02-08T07:19:10.611Z,9.33
2017-02-08T07:19:51.105Z,9.33
2017-02-08T07:20:31.613Z,9.62
2017-02-08T07:21:12.100Z,9.72
2017-02-08T07:21:52.595Z,9.43
2017-02-08T07:22:33.141Z,9.43
2017-02-08T07:23:13.644Z,9.72
2017-02-08T07:23:55.748Z,9.91
2017-02-08T07:24:36.243Z,9.62
2017-02-08T07:25:16.734Z,9.62
2017-02-08T07:25:57.231Z,9.63
2017-02-08T07:26:37.723Z,9.52
2017-02-08T07:27:18.231Z,9.72
2017-02-08T07:27:58.703Z,9.91
2017-02-08T07:28:39.207Z,9.81
2017-02-08T07:29:19.699Z,10
2017-02-08T07:30:00.188Z,9.81
2017-02-08T07:30:40.685Z,10.01
2017-02-08T07:31:21.174Z,9.91
2017-02-08T07:32:01.672Z,10.11
2017-02-08T07:32:42.172Z,10
2017-02-08T07:33:22.673Z,10
2017-02-08T07:34:03.235Z,9.91
2017-02-08T07:34:43.728Z,9.91
2017-02-08T07:35:24.223Z,10.01
2017-02-08T07:36:04.723Z,10.29
2017-02-08T07:36:45.233Z,10.2
2017-02-08T07:37:25.722Z,10.39
2017-02-08T07:38:06.218Z,10.3
2017-02-08T07:38:46.702Z,10.3
2017-02-08T07:39:27.198Z,10.2
2017-02-08T07:40:07.690Z,10.2
2017-02-08T07:40:48.197Z,10.2
2017-02-08T07:41:28.688Z,10.29
2017-02-08T07:42:09.185Z,10.39
2017-02-08T07:42:49.715Z,10.2
2017-02-08T07:43:30.169Z,10.3
2017-02-08T07:44:10.676Z,10.01
2017-02-08T07:44:51.174Z,10.29
2017-02-08T07:45:31.663Z,10.3
2017-02-08T07:46:12.161Z,10.01
2017-02-08T07:46:52.659Z,10.01
2017-02-08T07:47:33.159Z,9.81
2017-02-08T07:48:13.677Z,9.81
2017-02-08T07:48:54.175Z,10.11
2017-02-08T07:49:34.706Z,9.81
2017-02-08T07:50:15.166Z,10.01
2017-02-08T07:50:55.667Z,9.81
2017-02-08T07:51:36.160Z,10.2
2017-02-08T07:52:16.676Z,9.81
2017-02-08T07:52:57.157Z,9.81
2017-02-08T07:53:37.670Z,9.91
2017-02-08T07:54:18.158Z,9.81
2017-02-08T07:54:58.667Z,10.01
2017-02-08T07:55:39.154Z,9.91
2017-02-08T07:56:19.666Z,10.01
2017-02-08T07:57:00.159Z,9.72
2017-02-08T07:57:40.661Z,10.01
2017-02-08T07:58:21.151Z,10.01
2017-02-08T07:59:01.660Z,9.81
2017-02-08T07:59:42.151Z,9.81
2017-02-08T08:00:22.644Z,9.91
2017-02-08T08:01:03.138Z,9.81
2017-02-08T08:01:43.801Z,9.81
2017-02-08T08:02:24.300Z,9.72
2017-02-08T08:03:04.798Z,9.91
2017-02-08T08:03:45.316Z,9.91
2017-02-08T08:04:25.799Z,9.91
2017-02-08T08:05:06.294Z,9.81
2017-02-08T08:05:46.796Z,9.91
2017-02-08T08:06:27.291Z,9.91
2017-02-08T08:07:07.792Z,9.81
2017-02-08T08:07:48.306Z,9.91
2017-02-08T08:08:28.795Z,9.81
2017-02-08T08:09:09.305Z,9.72
2017-02-08T08:09:49.797Z,9.81
2017-02-08T08:10:30.307Z,9.63
2017-02-08T08:11:10.794Z,9.91
2017-02-08T08:11:51.299Z,9.91
2017-02-08T08:12:31.787Z,9.72
2017-02-08T08:13:12.298Z,9.81
2017-02-08T08:13:52.789Z,9.72
2017-02-08T08:14:33.283Z,9.81
2017-02-08T08:15:13.766Z,9.81
2017-02-08T08:15:54.267Z,9.72
2017-02-08T08:16:34.760Z,9.72
2017-02-08T08:17:15.246Z,9.63
2017-02-08T08:17:55.742Z,9.63
2017-02-08T08:18:36.232Z,9.63
2017-02-08T08:19:16.732Z,9.53
2017-02-08T08:19:57.225Z,9.72
2017-02-08T08:20:37.710Z,9.72
2017-02-08T08:21:18.309Z,9.63
2017-02-08T08:21:58.815Z,9.63
2017-02-08T08:22:39.299Z,9.63
2017-02-08T08:23:19.789Z,9.63
2017-02-08T08:24:00.291Z,9.72
2017-02-08T08:24:40.778Z,9.72
2017-02-08T08:25:21.272Z,9.63
2017-02-08T08:26:01.750Z,9.72
2017-02-08T08:26:42.341Z,9.72
2017-02-08T08:27:22.836Z,9.81
2017-02-08T08:28:03.328Z,9.63
2017-02-08T08:28:43.836Z,9.81
2017-02-08T08:29:24.323Z,9.72
2017-02-08T08:30:04.840Z,9.72
2017-02-08T08:30:45.324Z,9.72
2017-02-08T08:31:25.820Z,9.81
2017-02-08T08:32:06.311Z,9.81
2017-02-08T08:32:46.804Z,9.72
2017-02-08T08:33:27.289Z,9.72
2017-02-08T08:34:07.774Z,9.72
2017-02-08T08:34:48.288Z,9.63
2017-02-08T08:35:28.775Z,9.91
2017-02-08T08:36:09.279Z,9.63
2017-02-08T08:36:49.764Z,9.72
2017-02-08T08:37:30.248Z,9.81
2017-02-08T08:38:10.740Z,9.81
2017-02-08T08:38:51.214Z,9.81
2017-02-08T08:39:31.729Z,9.72
2017-02-08T08:40:13.060Z,9.91
2017-02-08T08:40:52.722Z,9.81
2017-02-08T08:41:33.220Z,9.81
2017-02-08T08:42:13.722Z,9.81
2017-02-08T08:42:54.209Z,9.81
2017-02-08T08:43:34.720Z,9.81
2017-02-08T08:44:15.199Z,9.72
2017-02-08T08:44:55.679Z,9.72
2017-02-08T08:45:36.184Z,9.81
2017-02-08T08:46:16.689Z,9.81
2017-02-08T08:46:57.171Z,9.72
2017-02-08T08:47:37.653Z,9.91
2017-02-08T08:48:18.146Z,9.63
2017-02-08T08:48:58.642Z,9.53
2017-02-08T08:49:39.128Z,9.63
2017-02-08T08:50:19.619Z,9.63
2017-02-08T08:51:00.102Z,9.53
2017-02-08T08:51:40.608Z,9.91
2017-02-08T08:52:21.098Z,9.81
2017-02-08T08:53:01.590Z,9.81
2017-02-08T08:53:42.093Z,9.72
2017-02-08T08:54:22.581Z,9.72
2017-02-08T08:55:03.059Z,9.81
2017-02-08T08:55:43.612Z,9.53
2017-02-08T08:56:24.095Z,9.81
2017-02-08T08:57:04.588Z,9.53
2017-02-08T08:57:45.062Z,9.82
2017-02-08T08:58:25.539Z,9.81
2017-02-08T08:59:06.034Z,9.63
2017-02-08T08:59:46.518Z,9.63
2017-02-08T09:00:27.013Z,9.81